createdAt,value
2019-03-20T00:00:26.389Z,4.67
2019-03-20T00:05:27.209Z,5.47
2019-03-20T00:07:54.272Z,4.27
2019-03-20T00:10:21.387Z,5.53
2019-03-20T00:12:48.476Z,4.77
2019-03-20T00:15:15.568Z,5.57
2019-03-20T00:17:42.708Z,4.03
2019-03-20T00:20:09.833Z,5.63
2019-03-20T00:22:36.921Z,5.27
2019-03-20T00:25:04.062Z,5.33
2019-03-20T00:27:31.180Z,6.37
2019-03-20T00:29:58.289Z,4.83
2019-03-20T00:32:25.390Z,6.07
2019-03-20T00:35:00.478Z,5.67
2019-03-20T00:37:19.636Z,6.20
2019-03-20T00:39:46.726Z,4.50
2019-03-20T00:42:13.824Z,5.93
2019-03-20T00:44:40.892Z,6.13
2019-03-20T00:47:07.989Z,5.00
2019-03-20T00:49:35.092Z,7.10
2019-03-20T00:52:02.168Z,5.83
2019-03-20T00:54:29.268Z,5.17
2019-03-20T00:56:56.420Z,4.27
2019-03-20T00:59:23.507Z,4.93
2019-03-20T01:01:50.669Z,4.17
2019-03-20T01:04:17.769Z,4.63
2019-03-20T01:06:44.888Z,4.60
2019-03-20T01:09:11.986Z,4.83
2019-03-20T01:11:39.124Z,6.87
2019-03-20T01:14:06.209Z,5.20
2019-03-20T01:16:33.321Z,5.00
2019-03-20T01:19:00.447Z,7.57
2019-03-20T01:21:27.541Z,5.37
2019-03-20T01:23:54.625Z,7.20
2019-03-20T01:26:21.744Z,5.33
2019-03-20T01:28:48.827Z,6.47
2019-03-20T01:31:15.928Z,4.50
2019-03-20T01:33:43.025Z,4.17
2019-03-20T01:36:10.201Z,4.93
2019-03-20T01:38:37.301Z,4.63
2019-03-20T01:41:04.389Z,4.17
2019-03-20T01:43:31.485Z,4.20
2019-03-20T01:45:58.598Z,4.00
2019-03-20T01:48:25.692Z,3.40
2019-03-20T01:50:52.814Z,2.97
2019-03-20T01:53:19.901Z,5.33
2019-03-20T01:55:47.009Z,4.90
2019-03-20T01:58:14.100Z,5.07
2019-03-20T02:00:41.190Z,5.57
2019-03-20T02:03:08.292Z,6.37
2019-03-20T02:05:36.618Z,3.70
2019-03-20T02:08:02.501Z,7.13
2019-03-20T02:10:29.607Z,5.03
2019-03-20T02:12:58.653Z,3.40
2019-03-20T02:15:23.843Z,4.40
2019-03-20T02:17:50.970Z,4.03
2019-03-20T02:20:18.109Z,5.20
2019-03-20T02:22:45.205Z,6.03
2019-03-20T02:25:12.340Z,4.90
2019-03-20T02:27:39.422Z,6.00
2019-03-20T02:30:08.945Z,6.60
2019-03-20T02:32:36.043Z,4.17
2019-03-20T02:35:03.771Z,5.00
2019-03-20T02:37:30.892Z,4.97
2019-03-20T02:39:57.986Z,4.13
2019-03-20T02:42:25.100Z,5.20
2019-03-20T02:44:52.171Z,5.07
2019-03-20T02:47:19.300Z,5.63
2019-03-20T02:49:46.410Z,6.40
2019-03-20T02:52:13.508Z,5.87
2019-03-20T02:54:40.624Z,5.07
2019-03-20T02:57:07.725Z,4.50
2019-03-20T02:59:34.810Z,4.37
2019-03-20T03:02:01.914Z,3.70
2019-03-20T03:04:29.013Z,4.00
2019-03-20T03:06:56.123Z,4.23
2019-03-20T03:09:23.208Z,4.93
2019-03-20T03:11:50.338Z,4.80
2019-03-20T03:14:17.438Z,3.87
2019-03-20T03:16:44.540Z,8.40
2019-03-20T03:19:11.597Z,3.70
2019-03-20T03:21:38.705Z,5.80
2019-03-20T03:24:05.785Z,5.10
2019-03-20T03:26:32.873Z,4.80
2019-03-20T03:28:59.965Z,6.00
2019-03-20T03:31:27.057Z,5.80
2019-03-20T03:33:54.175Z,4.47
2019-03-20T03:36:22.027Z,6.97
2019-03-20T03:38:48.394Z,4.43
2019-03-20T03:41:15.486Z,4.73
2019-03-20T03:43:42.602Z,7.33
2019-03-20T03:46:09.709Z,5.83
2019-03-20T03:48:36.847Z,6.20
2019-03-20T03:51:03.933Z,8.20
2019-03-20T03:53:31.014Z,6.77
2019-03-20T03:55:58.106Z,5.47
2019-03-20T03:58:25.177Z,4.83
2019-03-20T04:00:52.279Z,4.07
2019-03-20T04:03:19.370Z,5.13
2019-03-20T04:05:46.474Z,7.87
2019-03-20T04:08:13.558Z,5.07
2019-03-20T04:10:40.660Z,6.70
2019-03-20T04:13:07.762Z,5.83
2019-03-20T04:15:36.376Z,6.47
2019-03-20T04:18:01.973Z,5.53
2019-03-20T04:20:29.066Z,4.97
2019-03-20T04:22:56.169Z,2.80
2019-03-20T04:25:23.278Z,6.50
2019-03-20T04:27:50.367Z,5.93
2019-03-20T04:30:17.485Z,3.93
2019-03-20T04:32:44.586Z,6.37
2019-03-20T04:35:11.685Z,6.73
2019-03-20T04:37:38.805Z,3.60
2019-03-20T04:40:06.366Z,5.03
2019-03-20T04:42:33.479Z,4.33
2019-03-20T04:45:00.577Z,5.00
2019-03-20T04:47:27.690Z,4.80
2019-03-20T04:49:54.780Z,4.17
2019-03-20T04:52:21.880Z,6.17
2019-03-20T04:54:48.968Z,4.47
2019-03-20T04:57:16.066Z,6.20
2019-03-20T04:59:43.153Z,6.57
2019-03-20T05:02:10.245Z,6.53
2019-03-20T05:04:37.343Z,6.43
2019-03-20T05:07:04.437Z,6.07
2019-03-20T05:09:31.543Z,5.63
2019-03-20T05:11:58.648Z,5.00
2019-03-20T05:14:25.729Z,4.83
2019-03-20T05:16:52.908Z,6.07
2019-03-20T05:19:20.003Z,4.87
2019-03-20T05:21:47.100Z,6.43
2019-03-20T05:24:14.189Z,5.47
2019-03-20T05:26:41.298Z,5.17
2019-03-20T05:29:08.399Z,4.60
2019-03-20T05:31:35.480Z,5.77
2019-03-20T05:34:02.604Z,4.67
2019-03-20T05:36:29.669Z,4.63
2019-03-20T05:38:56.782Z,3.57
2019-03-20T05:41:23.958Z,5.57
2019-03-20T05:43:51.044Z,4.00
2019-03-20T05:46:18.158Z,4.27
2019-03-20T05:48:45.265Z,5.40
2019-03-20T05:51:12.357Z,6.73
2019-03-20T05:53:39.446Z,6.07
2019-03-20T05:56:06.556Z,5.87
2019-03-20T05:58:33.658Z,4.27
2019-03-20T06:01:00.756Z,4.50
2019-03-20T06:03:27.832Z,3.87
2019-03-20T06:05:54.976Z,3.27
2019-03-20T06:08:22.069Z,2.73
2019-03-20T06:10:49.196Z,4.03
2019-03-20T06:13:16.294Z,4.27
2019-03-20T06:15:43.396Z,6.27
2019-03-20T06:18:10.490Z,6.90
2019-03-20T06:20:37.590Z,4.07
2019-03-20T06:23:04.683Z,3.87
2019-03-20T06:25:31.781Z,5.33
2019-03-20T06:27:58.925Z,3.57
2019-03-20T06:30:26.013Z,4.03
2019-03-20T06:32:53.105Z,5.60
2019-03-20T06:35:20.197Z,4.27
2019-03-20T06:37:47.276Z,4.40
2019-03-20T06:40:14.396Z,3.33
2019-03-20T06:42:41.482Z,5.67
2019-03-20T06:45:09.097Z,4.13
2019-03-20T06:47:36.216Z,5.03
2019-03-20T06:50:04.157Z,3.73
2019-03-20T06:52:31.241Z,4.20
2019-03-20T06:54:58.331Z,3.57
2019-03-20T06:57:25.424Z,5.87
2019-03-20T07:00:17.502Z,4.77
2019-03-20T07:02:46.733Z,4.30
2019-03-20T07:05:24.920Z,4.00
2019-03-20T07:07:51.973Z,3.50
2019-03-20T07:10:30.884Z,6.10
2019-03-20T07:12:57.991Z,5.20
2019-03-20T07:15:25.072Z,5.17
2019-03-20T07:17:52.148Z,5.73
2019-03-20T07:20:19.259Z,4.07
2019-03-20T07:22:46.432Z,5.57
2019-03-20T07:25:13.541Z,4.90
2019-03-20T07:27:40.678Z,3.67
2019-03-20T07:30:09.133Z,5.40
2019-03-20T07:32:36.230Z,3.67
2019-03-20T07:35:03.429Z,5.10
2019-03-20T07:37:30.514Z,4.97
2019-03-20T07:39:57.612Z,5.33
2019-03-20T07:42:24.731Z,5.47
2019-03-20T07:44:51.812Z,7.03
2019-03-20T07:47:18.932Z,5.03
2019-03-20T07:49:46.049Z,5.13
2019-03-20T07:52:13.143Z,4.97
2019-03-20T07:54:40.241Z,5.00
2019-03-20T07:57:07.340Z,5.73
2019-03-20T07:59:34.464Z,4.97
2019-03-20T08:02:01.563Z,5.43
2019-03-20T08:04:28.638Z,3.73
2019-03-20T08:06:55.744Z,6.40
2019-03-20T08:09:25.454Z,5.20
2019-03-20T08:11:49.968Z,5.33
2019-03-20T08:14:17.069Z,4.67
2019-03-20T08:16:44.172Z,4.33
2019-03-20T08:19:11.274Z,6.27
2019-03-20T08:21:38.377Z,5.37
2019-03-20T08:24:05.471Z,6.10
2019-03-20T08:26:32.558Z,5.67
2019-03-20T08:28:59.646Z,3.27
2019-03-20T08:31:26.764Z,5.30
2019-03-20T08:33:53.857Z,4.10
2019-03-20T08:36:20.941Z,4.13
2019-03-20T08:38:48.088Z,4.73
2019-03-20T08:41:15.182Z,5.27
2019-03-20T08:43:42.277Z,3.83
2019-03-20T08:46:09.348Z,4.13
2019-03-20T08:48:36.460Z,4.80
2019-03-20T08:51:03.658Z,4.70
2019-03-20T08:53:30.733Z,4.07
2019-03-20T08:55:57.817Z,5.27
2019-03-20T08:58:24.910Z,4.50
2019-03-20T09:00:52.000Z,4.43
2019-03-20T09:03:19.090Z,4.33
2019-03-20T09:05:46.188Z,3.93
2019-03-20T09:08:13.310Z,5.77
2019-03-20T09:10:40.380Z,4.50
2019-03-20T09:13:07.551Z,2.33
2019-03-20T09:15:34.677Z,4.43
2019-03-20T09:18:01.811Z,4.53
2019-03-20T09:20:28.944Z,3.33
2019-03-20T09:22:56.036Z,3.93
2019-03-20T09:25:23.160Z,5.93
2019-03-20T09:27:50.336Z,4.27
2019-03-20T09:30:18.710Z,4.33
2019-03-20T09:32:45.824Z,3.07
2019-03-20T09:35:12.917Z,2.43
2019-03-20T09:37:50.972Z,5.13
2019-03-20T09:40:08.719Z,4.03
2019-03-20T09:42:35.821Z,3.30
2019-03-20T09:45:03.318Z,2.03
2019-03-20T09:47:30.412Z,4.03
2019-03-20T09:49:57.477Z,4.67
2019-03-20T09:52:24.552Z,3.50
2019-03-20T09:54:51.649Z,5.53
2019-03-20T09:57:18.721Z,3.83
2019-03-20T09:59:46.068Z,4.20
2019-03-20T10:02:12.942Z,3.33
2019-03-20T10:04:40.053Z,4.63
2019-03-20T10:07:07.148Z,2.73
2019-03-20T10:09:34.241Z,3.43
2019-03-20T10:12:01.349Z,5.03
2019-03-20T10:14:28.448Z,3.83
2019-03-20T10:16:55.535Z,2.63
2019-03-20T10:19:22.625Z,2.53
2019-03-20T10:21:49.717Z,3.30
2019-03-20T10:24:16.840Z,4.33
2019-03-20T10:26:43.928Z,4.60
2019-03-20T10:29:11.017Z,4.07
2019-03-20T10:31:38.104Z,5.00
2019-03-20T10:34:05.187Z,2.57
2019-03-20T10:36:32.272Z,3.27
2019-03-20T10:39:06.363Z,4.80
2019-03-20T10:41:26.468Z,2.10
2019-03-20T10:43:53.577Z,1.90
2019-03-20T10:46:20.653Z,3.40
2019-03-20T10:48:47.771Z,3.47
2019-03-20T10:51:14.861Z,3.63
2019-03-20T10:53:41.973Z,2.70
2019-03-20T10:56:09.093Z,2.20
2019-03-20T10:58:36.204Z,1.33
2019-03-20T11:01:03.335Z,3.37
2019-03-20T11:03:30.439Z,2.20
2019-03-20T11:05:57.547Z,2.53
2019-03-20T11:08:24.655Z,3.43
2019-03-20T11:10:51.761Z,2.90
2019-03-20T11:13:18.848Z,2.63
2019-03-20T11:15:45.952Z,2.47
2019-03-20T11:18:13.045Z,3.43
2019-03-20T11:20:40.132Z,2.70
2019-03-20T11:23:07.237Z,2.87
2019-03-20T11:25:34.401Z,4.03
2019-03-20T11:28:01.488Z,5.20
2019-03-20T11:30:28.583Z,3.57
2019-03-20T11:32:55.686Z,2.67
2019-03-20T11:35:22.826Z,5.20
2019-03-20T11:37:49.965Z,3.40
2019-03-20T11:40:20.341Z,2.70
2019-03-20T11:42:47.472Z,2.77
2019-03-20T11:45:14.577Z,2.93
2019-03-20T11:47:41.669Z,2.60
2019-03-20T11:50:11.805Z,5.20
2019-03-20T11:52:38.897Z,3.53
2019-03-20T11:55:06.081Z,2.90
2019-03-20T11:57:33.189Z,2.63
2019-03-20T12:00:00.393Z,4.03
2019-03-20T12:02:28.598Z,3.40
2019-03-20T12:05:07.391Z,2.23
2019-03-20T12:07:39.656Z,2.00
2019-03-20T12:10:09.567Z,2.17
2019-03-20T12:12:37.203Z,3.77
2019-03-20T12:15:05.836Z,4.17
2019-03-20T12:17:32.997Z,2.97
2019-03-20T12:20:00.252Z,3.63
2019-03-20T12:22:27.321Z,2.43
2019-03-20T12:24:54.468Z,4.53
2019-03-20T12:27:21.694Z,3.03
2019-03-20T12:29:48.792Z,3.47
2019-03-20T12:32:15.914Z,4.60
2019-03-20T12:34:43.005Z,4.87
2019-03-20T12:37:10.109Z,2.77
2019-03-20T12:39:38.271Z,3.00
2019-03-20T12:42:04.312Z,2.57
2019-03-20T12:44:31.406Z,2.27
2019-03-20T12:46:58.514Z,2.40
2019-03-20T12:49:25.620Z,1.97
2019-03-20T12:51:52.732Z,3.33
2019-03-20T12:54:19.839Z,2.20
2019-03-20T12:56:46.914Z,3.07
2019-03-20T12:59:14.001Z,1.83
2019-03-20T13:01:41.093Z,3.10
2019-03-20T13:04:08.184Z,3.53
2019-03-20T13:06:35.268Z,3.63
2019-03-20T13:09:03.759Z,3.77
2019-03-20T13:11:29.577Z,2.37
2019-03-20T13:13:56.681Z,3.17
2019-03-20T13:16:23.793Z,2.70
2019-03-20T13:18:50.929Z,3.60
2019-03-20T13:21:18.053Z,2.47
2019-03-20T13:23:45.156Z,4.00
2019-03-20T13:26:12.240Z,4.30
2019-03-20T13:28:39.372Z,3.53
2019-03-20T13:31:10.468Z,3.30
2019-03-20T13:33:37.585Z,3.90
2019-03-20T13:36:05.297Z,2.03
2019-03-20T13:38:32.377Z,2.40
2019-03-20T13:40:59.465Z,4.27
2019-03-20T13:43:26.597Z,4.20
2019-03-20T13:45:53.669Z,2.70
2019-03-20T13:48:20.770Z,2.97
2019-03-20T13:50:47.851Z,2.83
2019-03-20T13:53:15.525Z,2.97
2019-03-20T13:55:42.083Z,2.77
2019-03-20T13:58:09.196Z,4.37
2019-03-20T14:00:36.294Z,2.93
2019-03-20T14:03:03.383Z,3.83
2019-03-20T14:05:30.513Z,5.27
2019-03-20T14:07:57.619Z,2.03
2019-03-20T14:10:25.744Z,3.47
2019-03-20T14:12:51.899Z,2.67
2019-03-20T14:15:19.012Z,4.10
2019-03-20T14:17:46.113Z,3.40
2019-03-20T14:20:16.097Z,4.17
2019-03-20T14:22:43.197Z,3.97
2019-03-20T14:25:10.335Z,3.27
2019-03-20T14:27:37.461Z,3.63
2019-03-20T14:30:07.165Z,4.03
2019-03-20T14:32:34.296Z,4.47
2019-03-20T14:35:01.393Z,2.40
2019-03-20T14:37:28.517Z,3.43
2019-03-20T14:39:55.642Z,5.53
2019-03-20T14:42:22.744Z,4.20
2019-03-20T14:44:51.718Z,3.23
2019-03-20T14:47:16.997Z,2.67
2019-03-20T14:49:44.105Z,3.10
2019-03-20T14:52:11.245Z,3.67
2019-03-20T14:54:38.377Z,3.07
2019-03-20T14:57:05.485Z,2.47
2019-03-20T14:59:32.581Z,2.40
2019-03-20T15:01:59.673Z,3.07
2019-03-20T15:04:26.776Z,2.03
2019-03-20T15:06:53.896Z,3.97
2019-03-20T15:09:21.008Z,3.23
2019-03-20T15:11:48.120Z,3.23
2019-03-20T15:14:15.224Z,3.50
2019-03-20T15:16:42.328Z,3.60
2019-03-20T15:19:09.421Z,2.80
2019-03-20T15:21:36.517Z,2.63
2019-03-20T15:24:03.605Z,2.60
2019-03-20T15:26:30.710Z,2.60
2019-03-20T15:28:57.801Z,2.83
2019-03-20T15:31:24.913Z,3.50
2019-03-20T15:33:52.017Z,4.83
2019-03-20T15:36:19.106Z,2.77
2019-03-20T15:38:46.188Z,3.07
2019-03-20T15:41:14.027Z,3.83
2019-03-20T15:43:40.453Z,2.87
2019-03-20T15:46:07.576Z,2.67
2019-03-20T15:48:34.733Z,2.47
2019-03-20T15:51:01.837Z,2.10
2019-03-20T15:53:28.952Z,5.03
2019-03-20T15:55:56.037Z,3.53
2019-03-20T15:58:23.139Z,3.33
2019-03-20T16:00:50.228Z,3.57
2019-03-20T16:03:18.056Z,3.00
2019-03-20T16:05:45.162Z,3.20
2019-03-20T16:08:12.265Z,2.67
2019-03-20T16:10:39.496Z,1.53
2019-03-20T16:13:06.605Z,2.13
2019-03-20T16:15:33.694Z,3.07
2019-03-20T16:18:00.806Z,2.23
2019-03-20T16:20:27.929Z,2.40
2019-03-20T16:22:55.028Z,2.87
2019-03-20T16:25:22.117Z,2.43
2019-03-20T16:27:49.240Z,2.27
2019-03-20T16:30:17.774Z,4.30
2019-03-20T16:32:44.880Z,4.10
2019-03-20T16:35:12.033Z,4.07
2019-03-20T16:37:39.164Z,3.63
2019-03-20T16:40:08.728Z,2.23
2019-03-20T16:42:35.884Z,2.43
2019-03-20T16:45:03.993Z,2.90
2019-03-20T16:47:31.098Z,3.57
2019-03-20T16:49:58.176Z,2.20
2019-03-20T16:52:25.269Z,2.10
2019-03-20T16:54:52.364Z,2.33
2019-03-20T16:57:21.754Z,2.67
2019-03-20T16:59:46.607Z,1.43
2019-03-20T17:02:13.737Z,1.90
2019-03-20T17:04:40.829Z,3.03
2019-03-20T17:07:07.937Z,2.23
2019-03-20T17:09:35.042Z,3.43
2019-03-20T17:12:02.124Z,2.67
2019-03-20T17:14:29.212Z,1.97
2019-03-20T17:16:56.308Z,3.17
2019-03-20T17:19:23.419Z,2.97
2019-03-20T17:21:50.512Z,1.97
2019-03-20T17:24:17.603Z,3.93
2019-03-20T17:26:44.687Z,2.20
2019-03-20T17:29:13.642Z,3.07
2019-03-20T17:31:38.884Z,2.63
2019-03-20T17:34:05.968Z,1.83
2019-03-20T17:36:33.080Z,2.33
2019-03-20T17:39:00.174Z,2.40
2019-03-20T17:41:36.252Z,3.47
2019-03-20T17:43:54.385Z,1.90
2019-03-20T17:46:21.471Z,2.30
2019-03-20T17:48:48.576Z,2.27
2019-03-20T17:51:15.677Z,3.13
2019-03-20T17:53:42.764Z,2.23
2019-03-20T17:56:09.837Z,2.10
2019-03-20T17:58:36.922Z,2.57
2019-03-20T18:01:04.061Z,3.23
2019-03-20T18:03:31.165Z,1.30
2019-03-20T18:05:58.297Z,3.80
2019-03-20T18:08:25.409Z,2.83
2019-03-20T18:10:52.534Z,2.43
2019-03-20T18:13:19.625Z,2.23
2019-03-20T18:15:46.793Z,2.20
2019-03-20T18:18:13.900Z,3.67
2019-03-20T18:20:40.990Z,1.80
2019-03-20T18:23:08.117Z,2.50
2019-03-20T18:25:35.236Z,2.83
2019-03-20T18:28:02.328Z,2.03
2019-03-20T18:30:29.452Z,2.67
2019-03-20T18:32:56.532Z,3.63
2019-03-20T18:35:23.654Z,2.97
2019-03-20T18:37:50.773Z,2.83
2019-03-20T18:40:17.909Z,2.00
2019-03-20T18:42:45.013Z,2.80
2019-03-20T18:45:12.711Z,2.07
2019-03-20T18:47:39.876Z,1.67
2019-03-20T18:50:07.019Z,2.83
2019-03-20T18:52:34.108Z,3.27
2019-03-20T18:55:01.246Z,2.47
2019-03-20T18:57:28.393Z,2.73
2019-03-20T18:59:55.505Z,3.73
2019-03-20T19:02:22.643Z,2.30
2019-03-20T19:04:49.732Z,3.07
2019-03-20T19:07:16.850Z,3.97
2019-03-20T19:09:43.985Z,3.57
2019-03-20T19:12:11.108Z,1.37
2019-03-20T19:14:38.275Z,2.73
2019-03-20T19:17:05.369Z,3.43
2019-03-20T19:19:32.543Z,2.33
2019-03-20T19:21:59.607Z,1.60
2019-03-20T19:27:00.454Z,1.53
2019-03-20T19:29:27.584Z,2.57
2019-03-20T19:31:55.795Z,2.53
2019-03-20T19:34:21.790Z,2.63
2019-03-20T19:36:48.902Z,1.80
2019-03-20T19:39:16.017Z,3.50
2019-03-20T19:41:43.109Z,2.23
2019-03-20T19:44:10.225Z,2.00
2019-03-20T19:46:37.313Z,2.73
2019-03-20T19:49:04.420Z,2.33
2019-03-20T19:51:31.522Z,1.83
2019-03-20T19:53:58.666Z,3.67
2019-03-20T19:56:25.767Z,2.60
2019-03-20T19:58:52.873Z,2.47
2019-03-20T20:01:19.974Z,1.83
2019-03-20T20:03:47.068Z,2.33
2019-03-20T20:06:14.210Z,1.57
2019-03-20T20:08:41.305Z,3.77
2019-03-20T20:11:08.449Z,2.27
2019-03-20T20:13:35.550Z,2.97
2019-03-20T20:16:02.658Z,3.20
2019-03-20T20:18:29.725Z,2.43
2019-03-20T20:20:56.837Z,2.90
2019-03-20T20:23:23.951Z,2.57
2019-03-20T20:25:51.064Z,3.33
2019-03-20T20:28:18.152Z,1.83
2019-03-20T20:30:45.244Z,1.73
2019-03-20T20:33:12.370Z,1.93
2019-03-20T20:35:39.519Z,2.03
2019-03-20T20:38:06.630Z,2.90
2019-03-20T20:40:33.717Z,2.30
2019-03-20T20:43:00.828Z,2.63
2019-03-20T20:45:27.936Z,2.03
2019-03-20T20:47:55.145Z,2.97
2019-03-20T20:50:22.214Z,1.40
2019-03-20T20:52:49.322Z,1.70
2019-03-20T20:55:16.523Z,2.87
2019-03-20T20:57:43.643Z,1.97
2019-03-20T21:00:14.245Z,2.40
2019-03-20T21:02:41.421Z,3.00
2019-03-20T21:05:08.517Z,1.53
2019-03-20T21:07:35.597Z,1.90
2019-03-20T21:10:02.865Z,2.23
2019-03-20T21:12:29.978Z,2.53
2019-03-20T21:14:57.076Z,2.77
2019-03-20T21:28:30.357Z,2.27
2019-03-20T21:35:59.712Z,2.47
2019-03-20T21:38:26.028Z,2.57
2019-03-20T21:46:43.882Z,2.17
2019-03-20T22:02:01.420Z,2.67
2019-03-20T22:07:04.658Z,3.23
2019-03-20T22:11:48.229Z,3.80
2019-03-20T22:19:03.004Z,1.83
2019-03-20T22:27:04.545Z,3.17
2019-03-20T22:33:33.745Z,3.77
2019-03-20T22:38:50.924Z,3.67
2019-03-20T22:41:32.208Z,3.27
2019-03-20T22:46:46.501Z,4.07
2019-03-20T22:54:48.600Z,4.20
